Terminal Aerodrome Forecast
Issued by NWS

Home | Current Version | Previous Version | Text Only | Print | Product List | Glossary Off
Versions: 1 2 3 4 5 6 7 8 9 10 11 12 13 14 15 16 17 18 19 20 21 22 23 24 25 26 27 28

000
FTUS43 KTOP 280945 AAA
TAFMHK
TAF AMD
KMHK 280945Z 2810/2906 20011KT P6SM VCTS BKN100CB
      TEMPO 2810/2814 5SM -TSRA OVC060CB
     FM281800 21013KT P6SM VCTS BKN050CB
     FM282100 21005KT P6SM SCT150=

USA.gov is the U.S. government's official web portal to all federal, state and local government web resources and services.